Time;durP1;ratioP1;P1;durP2;ratioP2;P2;SDS_P1;SDS_P2;PMS_P1;PMS_P2;Temp;Humidity;BMP_temperature;BMP_pressure;BME280_temperature;BME280_humidity;BME280_pressure;Samples;Min_cycle;Max_cycle;Signal;HPM_P1;HPM_P2
2022/11/01 00:01:47;;;;;;;116.20;59.88;;;13.80;99.90;;;;;;5001409;28;20486;-46
2022/11/01 00:04:13;;;;;;;112.07;58.72;;;13.70;99.90;;;;;;5027392;28;20026;-46
2022/11/01 00:06:38;;;;;;;120.93;62.40;;;13.70;99.90;;;;;;5023530;28;20100;-48
2022/11/01 00:09:04;;;;;;;116.65;60.22;;;13.70;99.90;;;;;;5005587;28;20014;-46
2022/11/01 00:11:30;;;;;;;101.63;54.63;;;13.80;99.90;;;;;;5020074;28;20487;-45
2022/11/01 00:13:55;;;;;;;113.10;58.17;;;13.70;99.90;;;;;;5021143;28;20048;-46
2022/11/01 00:16:21;;;;;;;111.15;56.00;;;13.70;99.90;;;;;;5022749;28;20014;-48
2022/11/01 00:18:47;;;;;;;114.38;58.38;;;13.70;99.90;;;;;;5020128;28;20029;-47
2022/11/01 00:21:14;;;;;;;108.40;54.55;;;13.70;99.90;;;;;;5022589;28;20033;-45
2022/11/01 00:23:40;;;;;;;99.75;52.20;;;13.70;99.90;;;;;;5019972;28;20026;-46
2022/11/01 00:26:07;;;;;;;117.10;57.33;;;13.60;99.90;;;;;;5022000;28;20013;-46
2022/11/01 00:28:33;;;;;;;110.95;57.95;;;13.60;99.90;;;;;;5003944;28;20510;-46
2022/11/01 00:30:58;;;;;;;103.03;53.03;;;13.60;99.90;;;;;;5021316;28;20030;-46
2022/11/01 00:33:24;;;;;;;107.57;53.83;;;13.60;99.90;;;;;;5018524;28;20029;-47
2022/11/01 00:35:51;;;;;;;101.60;53.45;;;13.60;99.90;;;;;;5020331;28;20092;-47
2022/11/01 00:38:17;;;;;;;101.10;53.58;;;13.60;99.90;;;;;;5020185;28;20052;-46
2022/11/01 00:40:43;;;;;;;95.47;51.55;;;13.60;99.90;;;;;;5022059;28;20025;-46
2022/11/01 00:43:10;;;;;;;105.47;56.17;;;13.60;99.90;;;;;;5019234;28;20018;-48
2022/11/01 00:45:35;;;;;;;108.57;54.83;;;13.60;99.90;;;;;;5022365;28;20033;-46
2022/11/01 00:48:01;;;;;;;89.32;50.17;;;13.60;99.90;;;;;;5019265;28;20029;-46
2022/11/01 00:50:26;;;;;;;87.88;50.33;;;13.60;99.90;;;;;;5019806;28;20030;-47
2022/11/01 00:52:51;;;;;;;109.32;55.72;;;13.60;99.90;;;;;;5019326;28;20025;-48
2022/11/01 00:55:17;;;;;;;101.15;54.17;;;13.60;99.90;;;;;;5021145;28;20030;-45
2022/11/01 00:57:44;;;;;;;104.13;52.90;;;13.50;99.90;;;;;;5018913;28;20037;-46
2022/11/01 01:00:10;;;;;;;91.05;50.38;;;13.60;99.90;;;;;;5020499;28;20020;-48
2022/11/01 01:02:36;;;;;;;95.80;51.75;;;13.60;99.90;;;;;;5020530;28;20022;-46
2022/11/01 01:05:02;;;;;;;101.80;52.38;;;13.50;99.90;;;;;;5019276;28;20360;-47
2022/11/01 01:07:27;;;;;;;98.35;50.63;;;13.50;99.90;;;;;;5023617;28;20265;-48
2022/11/01 01:09:52;;;;;;;100.88;52.83;;;13.50;99.90;;;;;;5020031;28;20038;-46
2022/11/01 01:12:18;;;;;;;94.03;50.95;;;13.50;99.90;;;;;;5000988;28;20041;-46
2022/11/01 01:14:43;;;;;;;92.93;50.90;;;13.50;99.90;;;;;;5021682;28;20434;-47
2022/11/01 01:17:09;;;;;;;95.15;51.30;;;13.40;99.90;;;;;;5010806;28;20039;-46
2022/11/01 01:19:35;;;;;;;89.38;49.03;;;13.40;99.90;;;;;;5018554;28;20017;-46
2022/11/01 01:22:01;;;;;;;97.30;47.75;;;13.30;99.90;;;;;;5018067;28;20501;-46
2022/11/01 01:24:27;;;;;;;97.88;50.15;;;13.30;99.90;;;;;;5018329;28;20238;-46
2022/11/01 01:26:52;;;;;;;107.35;55.10;;;13.30;99.90;;;;;;5020747;28;20017;-48
2022/11/01 01:29:18;;;;;;;91.95;52.33;;;13.30;99.90;;;;;;5020625;28;20459;-47
2022/11/01 01:31:43;;;;;;;98.47;54.53;;;13.30;99.90;;;;;;5020731;28;20033;-46
2022/11/01 01:34:09;;;;;;;103.30;52.70;;;13.30;99.90;;;;;;5019709;28;20535;-46
2022/11/01 01:36:34;;;;;;;89.28;49.85;;;13.30;99.90;;;;;;5021904;28;20034;-46
2022/11/01 01:39:00;;;;;;;96.78;51.38;;;13.20;99.90;;;;;;5018510;28;20415;-47
2022/11/01 01:44:50;;;;;;;101.38;54.08;;;13.20;99.90;;;;;;5018157;28;20032;-46
2022/11/01 01:47:28;;;;;;;116.97;57.25;;;13.20;99.90;;;;;;5019781;28;20029;-46
2022/11/01 01:50:09;;;;;;;108.22;54.47;;;13.20;99.90;;;;;;5019750;28;20057;-46
2022/11/01 01:52:50;;;;;;;106.28;56.40;;;13.20;99.90;;;;;;5018049;28;20025;-48
2022/11/01 01:55:19;;;;;;;112.75;57.35;;;13.20;99.90;;;;;;5002561;28;20498;-47
2022/11/01 01:57:46;;;;;;;104.23;56.33;;;13.20;99.90;;;;;;5017470;28;20033;-46
2022/11/01 02:00:12;;;;;;;106.07;55.40;;;13.20;99.90;;;;;;5017415;28;20437;-46
2022/11/01 02:02:39;;;;;;;97.93;55.55;;;13.20;99.90;;;;;;5019236;28;20022;-46
2022/11/01 02:05:18;;;;;;;105.05;52.78;;;13.20;99.90;;;;;;5017110;28;20517;-48
2022/11/01 02:07:44;;;;;;;101.10;54.97;;;13.20;99.90;;;;;;5020185;28;20566;-45
2022/11/01 02:10:13;;;;;;;103.63;53.97;;;13.30;99.90;;;;;;5018963;28;20017;-46
2022/11/01 02:12:45;;;;;;;109.32;55.30;;;13.30;99.90;;;;;;5020507;28;20054;-46
2022/11/01 02:15:12;;;;;;;104.57;58.55;;;13.20;99.90;;;;;;5017200;28;20422;-45
2022/11/01 02:18:09;;;;;;;110.70;56.70;;;13.30;99.90;;;;;;5020202;28;20299;-47
2022/11/01 02:20:59;;;;;;;117.35;59.30;;;13.20;99.90;;;;;;5007879;28;20486;-45
2022/11/01 02:23:53;;;;;;;117.18;60.33;;;13.30;99.90;;;;;;5009940;28;20072;-46
2022/11/01 02:26:53;;;;;;;111.45;56.47;;;13.20;99.90;;;;;;5012350;28;20040;-45
2022/11/01 02:29:46;;;;;;;105.75;55.70;;;13.20;99.90;;;;;;5017472;28;20018;-45
2022/11/01 02:32:17;;;;;;;104.07;56.22;;;13.20;99.90;;;;;;5019783;28;20013;-45
2022/11/01 02:35:02;;;;;;;126.15;62.65;;;13.30;99.90;;;;;;5019944;28;20025;-45
2022/11/01 02:37:46;;;;;;;105.97;57.13;;;13.20;99.90;;;;;;5018604;28;20104;-46
2022/11/01 02:40:36;;;;;;;113.88;59.25;;;13.20;99.90;;;;;;5016929;28;20025;-45
2022/11/01 02:43:07;;;;;;;118.67;60.23;;;13.20;99.90;;;;;;5018725;28;20044;-45
2022/11/01 02:45:44;;;;;;;;;;;13.20;99.90;;;;;;5019087;28;20053;-45
2022/11/01 02:48:09;;;;;;;116.70;54.40;;;13.20;99.90;;;;;;5020413;28;19905;-44
2022/11/01 02:50:42;;;;;;;122.85;62.00;;;13.20;99.90;;;;;;5018683;28;20036;-45
2022/11/01 02:53:08;;;;;;;118.88;60.67;;;13.20;99.90;;;;;;5016301;28;20103;-44
2022/11/01 02:55:34;;;;;;;124.68;61.90;;;13.20;99.90;;;;;;5018769;28;20040;-45
2022/11/01 02:58:15;;;;;;;121.50;62.45;;;13.20;99.90;;;;;;5009788;28;20029;-45
2022/11/01 03:00:41;;;;;;;119.32;60.67;;;13.10;99.90;;;;;;5016578;28;20057;-46
2022/11/01 03:03:12;;;;;;;97.65;53.67;;;13.20;99.90;;;;;;5017078;28;20030;-48
2022/11/01 03:05:46;;;;;;;;;;;13.20;99.90;;;;;;5017450;28;20491;-46
2022/11/01 03:08:18;;;;;;;114.72;57.83;;;13.20;99.90;;;;;;5019933;28;19916;-47
2022/11/01 03:11:04;;;;;;;104.03;56.28;;;13.20;99.90;;;;;;5018273;28;20030;-46
2022/11/01 03:13:59;;;;;;;114.88;57.05;;;13.20;99.90;;;;;;5019075;28;20032;-46
2022/11/01 03:16:36;;;;;;;116.82;60.88;;;13.20;99.90;;;;;;5024003;28;20022;-46
2022/11/01 03:19:31;;;;;;;106.18;59.20;;;13.10;99.90;;;;;;5022830;28;20497;-46
2022/11/01 03:22:07;;;;;;;112.40;56.47;;;13.10;99.90;;;;;;5021605;28;20033;-46
2022/11/01 03:24:53;;;;;;;111.03;59.95;;;13.10;99.90;;;;;;5021304;28;20021;-47
2022/11/01 03:27:31;;;;;;;111.85;58.63;;;13.10;99.90;;;;;;5027207;28;20025;-46
2022/11/01 03:30:06;;;;;;;113.55;57.70;;;13.10;99.90;;;;;;5024664;28;20026;-46
2022/11/01 03:32:39;;;;;;;113.13;58.50;;;13.10;99.90;;;;;;5017783;28;20029;-46
2022/11/01 03:35:09;;;;;;;112.53;57.88;;;13.10;99.90;;;;;;5011769;28;20026;-47
2022/11/01 03:37:39;;;;;;;114.20;61.25;;;13.10;99.90;;;;;;5022001;28;20117;-49
2022/11/01 03:40:06;;;;;;;116.95;60.60;;;13.10;99.90;;;;;;5020450;28;20400;-46
2022/11/01 03:42:32;;;;;;;121.70;61.90;;;13.10;99.90;;;;;;5019483;28;20014;-46
2022/11/01 03:45:04;;;;;;;121.40;63.83;;;13.10;99.90;;;;;;5019923;28;20037;-46
2022/11/01 03:47:30;;;;;;;122.05;61.03;;;13.10;99.90;;;;;;5019831;28;20017;-46
2022/11/01 03:50:16;;;;;;;113.43;59.70;;;13.00;99.90;;;;;;5019917;28;20036;-46
2022/11/01 03:52:42;;;;;;;110.15;59.67;;;13.10;99.90;;;;;;5019212;28;20037;-46
2022/11/01 03:55:17;;;;;;;105.40;57.65;;;13.10;99.90;;;;;;5020501;28;20026;-46
2022/11/01 03:57:50;;;;;;;102.45;54.78;;;13.00;99.90;;;;;;5020173;28;20084;-49
2022/11/01 04:00:31;;;;;;;91.97;53.22;;;13.00;99.90;;;;;;5021655;28;20056;-46
2022/11/01 04:02:57;;;;;;;;;;;13.00;99.90;;;;;;5021759;28;20033;-46
2022/11/01 04:05:25;;;;;;;95.38;53.17;;;13.00;99.90;;;;;;5020227;28;19956;-45
2022/11/01 04:07:51;;;;;;;97.25;52.70;;;13.00;99.90;;;;;;5023008;28;20052;-46
2022/11/01 04:10:18;;;;;;;92.78;52.33;;;13.00;99.90;;;;;;5010014;28;20030;-46
2022/11/01 04:12:45;;;;;;;97.90;55.15;;;12.90;99.90;;;;;;5016703;28;20021;-47
2022/11/01 04:21:13;;;;;;;87.97;50.35;;;12.80;99.90;;;;;;5020221;28;20032;-46
2022/11/01 04:23:39;;;;;;;90.32;53.75;;;12.80;99.90;;;;;;5021405;28;20064;-47
2022/11/01 04:26:06;;;;;;;96.97;51.97;;;12.80;99.90;;;;;;5021629;28;20025;-45
2022/11/01 04:28:31;;;;;;;92.88;53.78;;;12.80;99.90;;;;;;5021851;28;20021;-45
2022/11/01 04:30:57;;;;;;;99.97;57.47;;;12.80;99.90;;;;;;5019383;28;20029;-47
2022/11/01 04:33:23;;;;;;;93.90;53.28;;;12.80;99.90;;;;;;5011000;28;20109;-45
2022/11/01 04:35:48;;;;;;;91.03;49.75;;;12.70;99.90;;;;;;5011121;28;20226;-48
2022/11/01 04:38:14;;;;;;;95.32;51.25;;;12.70;99.90;;;;;;5011142;28;20503;-45
2022/11/01 04:40:41;;;;;;;81.28;49.67;;;12.80;99.90;;;;;;5011091;28;20029;-46
2022/11/01 04:43:06;;;;;;;85.30;49.35;;;12.70;99.90;;;;;;5010498;28;20087;-45
2022/11/01 04:45:32;;;;;;;80.05;48.30;;;12.80;99.90;;;;;;5011051;28;20105;-48
2022/11/01 04:48:12;;;;;;;88.90;51.35;;;12.70;99.90;;;;;;5011118;28;20030;-46
2022/11/01 04:50:39;;;;;;;77.75;45.35;;;12.80;99.90;;;;;;5011233;28;20105;-48
2022/11/01 04:53:05;;;;;;;78.00;47.10;;;12.70;99.90;;;;;;5021730;28;20040;-46
2022/11/01 04:55:31;;;;;;;75.28;45.08;;;12.80;99.90;;;;;;5030313;28;20608;-48
2022/11/01 04:57:57;;;;;;;72.70;46.20;;;12.70;99.90;;;;;;5030055;28;20045;-46
2022/11/01 05:00:22;;;;;;;76.15;47.13;;;12.70;99.90;;;;;;5030663;28;20032;-46
2022/11/01 05:02:49;;;;;;;78.60;47.90;;;12.70;99.90;;;;;;5030215;28;20021;-47
2022/11/01 05:05:15;;;;;;;72.05;45.05;;;12.70;99.90;;;;;;5012939;28;20026;-47
2022/11/01 05:07:40;;;;;;;71.07;45.55;;;12.70;99.90;;;;;;5030480;28;20033;-47
2022/11/01 05:10:07;;;;;;;79.40;46.92;;;12.70;99.90;;;;;;5030487;28;20033;-49
2022/11/01 05:12:33;;;;;;;75.38;44.92;;;12.70;99.90;;;;;;5030367;28;20025;-49
2022/11/01 05:14:58;;;;;;;86.05;48.53;;;12.80;99.90;;;;;;5031016;28;20079;-46
2022/11/01 05:17:24;;;;;;;72.07;45.42;;;12.70;99.90;;;;;;5030361;28;20429;-47
2022/11/01 05:19:49;;;;;;;69.60;41.97;;;12.70;99.90;;;;;;5012376;28;20108;-45
2022/11/01 05:22:15;;;;;;;68.55;41.00;;;12.80;99.90;;;;;;5029661;28;20062;-47
2022/11/01 05:24:40;;;;;;;75.28;43.88;;;12.80;99.90;;;;;;5029865;28;20053;-45
2022/11/01 05:27:06;;;;;;;68.55;39.72;;;12.80;99.90;;;;;;5029700;28;20037;-46
2022/11/01 05:29:31;;;;;;;71.63;43.67;;;12.80;99.90;;;;;;5029917;28;20038;-46
2022/11/01 05:31:57;;;;;;;70.53;41.42;;;12.80;99.90;;;;;;5029232;28;20097;-46
2022/11/01 05:34:22;;;;;;;63.97;39.40;;;12.80;99.90;;;;;;5029748;28;20022;-48
2022/11/01 05:36:48;;;;;;;63.28;39.25;;;12.80;99.90;;;;;;5029436;28;20025;-46
2022/11/01 05:39:13;;;;;;;71.18;40.28;;;12.90;99.90;;;;;;5029424;28;20025;-48
2022/11/01 05:41:41;;;;;;;66.32;40.75;;;12.80;99.90;;;;;;5028925;28;20470;-48
2022/11/01 05:44:07;;;;;;;70.07;44.00;;;12.90;99.90;;;;;;5029827;28;20037;-46
2022/11/01 05:46:32;;;;;;;65.47;38.95;;;12.90;99.90;;;;;;5029719;28;20021;-48
2022/11/01 05:48:58;;;;;;;60.92;37.88;;;12.80;99.90;;;;;;5029641;28;20033;-46
2022/11/01 05:51:23;;;;;;;64.65;40.20;;;12.90;99.90;;;;;;5028853;28;20479;-47
2022/11/01 05:53:49;;;;;;;65.15;40.60;;;12.90;99.90;;;;;;5029592;28;20112;-46
2022/11/01 05:56:16;;;;;;;62.08;38.33;;;12.90;99.90;;;;;;5029451;28;20112;-46
2022/11/01 05:58:41;;;;;;;60.50;36.75;;;12.90;99.90;;;;;;5029554;28;20609;-46
2022/11/01 06:01:07;;;;;;;62.47;37.95;;;12.90;99.90;;;;;;5029316;28;20100;-46
2022/11/01 06:03:34;;;;;;;67.95;40.83;;;12.90;99.90;;;;;;5027693;28;20490;-48
2022/11/01 06:05:59;;;;;;;64.78;38.38;;;12.90;99.90;;;;;;5017792;28;20029;-46
2022/11/01 06:08:25;;;;;;;68.35;41.17;;;12.90;99.90;;;;;;5019570;28;20030;-46
2022/11/01 06:10:51;;;;;;;70.60;41.50;;;12.90;99.90;;;;;;5019093;28;20383;-46
2022/11/01 06:13:16;;;;;;;58.53;34.22;;;12.90;99.90;;;;;;5018020;28;20021;-47
2022/11/01 06:15:42;;;;;;;57.38;36.45;;;12.90;99.90;;;;;;5014442;28;20029;-46
2022/11/01 06:18:07;;;;;;;62.90;37.40;;;12.90;99.90;;;;;;5008960;28;20471;-47
2022/11/01 06:20:35;;;;;;;55.83;35.53;;;13.00;99.90;;;;;;5008879;28;20036;-45
2022/11/01 06:23:10;;;;;;;60.28;38.25;;;13.00;99.90;;;;;;5008765;28;20125;-46
2022/11/01 06:25:36;;;;;;;128.68;81.70;;;13.00;99.90;;;;;;5009166;28;20076;-49
2022/11/01 06:28:01;;;;;;;107.20;65.18;;;13.00;99.90;;;;;;5008997;28;20022;-46
2022/11/01 06:30:27;;;;;;;77.40;45.97;;;13.00;99.90;;;;;;4991430;28;20038;-46
2022/11/01 06:32:59;;;;;;;64.80;39.42;;;13.00;99.90;;;;;;5008636;28;20026;-47
2022/11/01 06:35:26;;;;;;;61.38;36.78;;;13.00;99.90;;;;;;5008912;28;20040;-46
2022/11/01 06:37:52;;;;;;;51.25;31.58;;;13.00;99.90;;;;;;5009045;28;20057;-48
2022/11/01 06:40:17;;;;;;;47.50;30.02;;;13.00;99.90;;;;;;5014243;28;20017;-46
2022/11/01 06:42:43;;;;;;;52.88;29.55;;;13.10;99.90;;;;;;5021552;28;20028;-48
2022/11/01 06:45:09;;;;;;;59.03;33.88;;;13.10;99.90;;;;;;4999314;28;20522;-48
2022/11/01 06:47:34;;;;;;;57.80;33.70;;;13.10;99.90;;;;;;5021361;28;20108;-47
2022/11/01 06:49:59;;;;;;;47.75;29.98;;;13.20;99.90;;;;;;5017755;28;20065;-46
2022/11/01 06:52:25;;;;;;;45.63;27.45;;;13.30;99.90;;;;;;5032348;28;20033;-47
2022/11/01 06:54:51;;;;;;;42.90;25.80;;;13.30;99.90;;;;;;5032535;28;20109;-46
2022/11/01 06:57:17;;;;;;;43.72;26.40;;;13.40;99.90;;;;;;5032291;28;20041;-49
2022/11/01 06:59:42;;;;;;;41.30;24.13;;;13.50;99.90;;;;;;5032506;28;20140;-45
2022/11/01 07:02:09;;;;;;;41.97;25.48;;;13.70;99.90;;;;;;5032065;28;20212;-46
2022/11/01 07:04:35;;;;;;;38.42;22.38;;;13.70;99.90;;;;;;5032630;28;20051;-45
2022/11/01 07:07:01;;;;;;;35.38;20.92;;;13.80;99.90;;;;;;5032680;28;20014;-45
2022/11/01 07:09:27;;;;;;;43.05;22.70;;;13.90;99.90;;;;;;5032159;28;20493;-45
2022/11/01 07:11:52;;;;;;;52.42;29.85;;;14.00;99.90;;;;;;5031630;28;20061;-48
2022/11/01 07:14:17;;;;;;;64.45;39.10;;;14.10;99.90;;;;;;5032543;28;20486;-48
2022/11/01 07:16:43;;;;;;;50.28;32.55;;;14.20;99.90;;;;;;5032557;28;20036;-47
2022/11/01 07:19:08;;;;;;;34.08;21.20;;;14.20;99.90;;;;;;5029039;28;20095;-47
2022/11/01 07:21:35;;;;;;;31.75;19.90;;;14.20;99.90;;;;;;5031614;28;20045;-48
2022/11/01 07:24:01;;;;;;;28.58;20.08;;;14.20;99.90;;;;;;5032093;28;20025;-46
2022/11/01 07:26:26;;;;;;;27.25;18.15;;;14.20;99.90;;;;;;5032470;28;20044;-46
2022/11/01 07:28:52;;;;;;;28.65;17.17;;;14.30;99.90;;;;;;5032265;28;20029;-47
2022/11/01 07:31:17;;;;;;;31.27;16.73;;;14.30;99.90;;;;;;5031683;28;20494;-46
2022/11/01 07:33:43;;;;;;;34.28;16.23;;;14.40;99.90;;;;;;5031858;28;20025;-48
2022/11/01 07:36:08;;;;;;;23.52;14.13;;;14.50;99.90;;;;;;5031862;28;20060;-46
2022/11/01 07:38:34;;;;;;;26.73;14.40;;;14.60;99.90;;;;;;5031956;28;20025;-48
2022/11/01 07:41:01;;;;;;;21.17;13.13;;;14.60;99.90;;;;;;5031760;28;20053;-48
2022/11/01 07:43:27;;;;;;;23.40;13.85;;;14.70;99.90;;;;;;5026749;28;20520;-47
2022/11/01 07:45:52;;;;;;;27.92;13.40;;;14.80;99.90;;;;;;5031624;28;20096;-46
2022/11/01 07:48:18;;;;;;;20.95;12.70;;;14.90;99.90;;;;;;5031773;28;20494;-47
2022/11/01 07:50:44;;;;;;;26.52;13.57;;;14.90;99.90;;;;;;5014028;28;20053;-48
2022/11/01 07:53:15;;;;;;;22.13;12.50;;;14.90;99.90;;;;;;5031844;28;20124;-47
2022/11/01 07:55:41;;;;;;;21.15;11.48;;;15.00;99.90;;;;;;5031972;28;20057;-48
2022/11/01 07:58:08;;;;;;;18.55;10.98;;;15.10;99.90;;;;;;5031434;28;20040;-48
2022/11/01 08:00:34;;;;;;;19.42;11.43;;;15.10;99.90;;;;;;5031592;28;20025;-46
2022/11/01 08:03:09;;;;;;;17.67;10.57;;;15.20;99.90;;;;;;5013525;28;20025;-46
2022/11/01 08:05:35;;;;;;;17.95;10.57;;;15.20;99.90;;;;;;5031750;28;20097;-46
2022/11/01 08:08:00;;;;;;;23.58;10.43;;;15.30;99.90;;;;;;5013642;28;20037;-49
2022/11/01 08:10:27;;;;;;;24.23;11.30;;;15.30;99.90;;;;;;5031238;28;20033;-46
2022/11/01 08:13:16;;;;;;;16.20;10.35;;;15.40;99.90;;;;;;5031034;28;20037;-46
2022/11/01 08:15:42;;;;;;;18.00;9.35;;;15.50;99.90;;;;;;5031602;28;20075;-46
2022/11/01 08:18:08;;;;;;;13.38;8.80;;;15.50;99.90;;;;;;5031172;28;20042;-46
2022/11/01 08:20:33;;;;;;;21.42;9.50;;;15.50;99.90;;;;;;5031106;28;20033;-47
2022/11/01 08:22:59;;;;;;;18.10;10.45;;;15.50;99.90;;;;;;5030889;28;20195;-47
2022/11/01 08:25:25;;;;;;;20.73;9.82;;;15.60;99.90;;;;;;5030976;28;20022;-46
2022/11/01 08:27:50;;;;;;;13.98;8.88;;;15.60;99.90;;;;;;5027556;28;20041;-47
2022/11/01 08:30:17;;;;;;;12.63;8.63;;;15.50;99.90;;;;;;5030743;28;20086;-46
2022/11/01 08:32:42;;;;;;;22.83;9.85;;;15.50;99.90;;;;;;5030503;28;20033;-46
2022/11/01 08:35:10;;;;;;;16.65;9.32;;;15.50;99.90;;;;;;5027735;28;20036;-46
2022/11/01 08:37:36;;;;;;;14.02;8.95;;;15.60;99.90;;;;;;5031093;28;20032;-49
2022/11/01 08:40:02;;;;;;;15.23;8.27;;;15.60;99.90;;;;;;5030970;28;20479;-48
2022/11/01 08:42:28;;;;;;;15.20;8.75;;;15.70;99.90;;;;;;5012389;28;20029;-49
2022/11/01 08:44:53;;;;;;;13.82;8.23;;;15.70;99.90;;;;;;5028445;28;20113;-48
2022/11/01 08:47:19;;;;;;;15.75;9.07;;;15.70;99.90;;;;;;5029842;28;20029;-45
2022/11/01 08:49:44;;;;;;;15.30;7.88;;;15.80;99.90;;;;;;5029698;28;20368;-46
2022/11/01 08:52:10;;;;;;;16.15;8.40;;;15.80;99.90;;;;;;5030826;28;20311;-46
2022/11/01 08:54:36;;;;;;;31.27;18.55;;;15.90;99.90;;;;;;5023065;28;20029;-46
2022/11/01 08:57:02;;;;;;;18.67;10.93;;;16.00;99.90;;;;;;5046238;28;20055;-47
2022/11/01 08:59:28;;;;;;;14.57;8.57;;;16.00;99.90;;;;;;5042280;28;20322;-45
2022/11/01 09:01:53;;;;;;;17.48;8.77;;;16.20;99.90;;;;;;5048940;28;20021;-46
2022/11/01 09:04:19;;;;;;;19.98;8.70;;;16.30;99.90;;;;;;5022494;28;20037;-46
2022/11/01 09:06:44;;;;;;;16.80;8.00;;;16.40;99.90;;;;;;5009546;28;20026;-46
2022/11/01 09:09:10;;;;;;;16.73;8.90;;;16.50;99.90;;;;;;5018270;28;20057;-46
2022/11/01 09:11:36;;;;;;;22.73;7.43;;;16.50;99.90;;;;;;5035611;28;20029;-46
2022/11/01 09:14:01;;;;;;;14.98;7.40;;;16.60;99.90;;;;;;5016075;28;20026;-47
2022/11/01 09:16:27;;;;;;;13.55;6.88;;;16.60;99.90;;;;;;5033447;28;20028;-45
2022/11/01 09:18:53;;;;;;;14.73;7.75;;;16.70;99.90;;;;;;5033491;28;20105;-47
2022/11/01 09:21:18;;;;;;;15.63;7.15;;;16.80;99.90;;;;;;5030557;28;20120;-45
2022/11/01 09:23:45;;;;;;;16.85;7.28;;;16.80;99.90;;;;;;5041353;28;20489;-46
2022/11/01 09:26:10;;;;;;;14.80;7.28;;;16.80;99.90;;;;;;5047460;28;20052;-48
2022/11/01 09:28:36;;;;;;;17.17;6.80;;;16.80;99.90;;;;;;5041119;28;20470;-46
2022/11/01 09:31:10;;;;;;;14.93;7.25;;;16.80;99.90;;;;;;5049534;28;20075;-46
2022/11/01 09:33:36;;;;;;;14.00;7.00;;;16.90;99.90;;;;;;5048144;28;20212;-46
2022/11/01 09:36:02;;;;;;;14.65;6.95;;;16.90;99.90;;;;;;5042621;28;20508;-48
2022/11/01 09:38:28;;;;;;;13.73;7.13;;;17.00;99.90;;;;;;5041073;28;20029;-46
2022/11/01 09:41:20;;;;;;;16.05;7.10;;;17.10;99.90;;;;;;5046344;28;20052;-46
2022/11/01 09:43:48;;;;;;;14.18;6.43;;;17.10;99.90;;;;;;5033987;28;20056;-47
2022/11/01 09:46:17;;;;;;;10.65;6.20;;;17.20;99.90;;;;;;5023961;28;20057;-46
2022/11/01 09:48:44;;;;;;;10.82;6.70;;;17.30;99.90;;;;;;5040773;28;20025;-47
2022/11/01 09:51:22;;;;;;;15.45;6.53;;;17.40;99.90;;;;;;5048137;28;20035;-49
2022/11/01 09:53:49;;;;;;;10.95;6.78;;;17.40;99.90;;;;;;5039999;28;20036;-45
2022/11/01 09:56:29;;;;;;;13.65;5.93;;;17.40;99.90;;;;;;5040616;28;20025;-46
2022/11/01 09:59:04;;;;;;;23.17;15.20;;;17.40;99.90;;;;;;5040219;28;20506;-46
2022/11/01 10:01:57;;;;;;;10.90;5.65;;;17.50;99.90;;;;;;5022236;28;20422;-48
2022/11/01 10:04:50;;;;;;;11.38;5.75;;;17.60;99.90;;;;;;5029092;28;20028;-46
2022/11/01 10:07:38;;;;;;;11.30;5.68;;;17.60;99.90;;;;;;5029841;28;20018;-46
2022/11/01 10:10:17;;;;;;;12.68;5.78;;;17.70;99.90;;;;;;5032806;28;20013;-46
2022/11/01 10:13:08;;;;;;;15.48;6.13;;;17.70;99.90;;;;;;5042969;28;20053;-46
2022/11/01 10:15:49;;;;;;;12.57;6.00;;;17.70;99.90;;;;;;5037852;28;20029;-46
2022/11/01 10:18:17;;;;;;;11.30;5.40;;;17.80;99.90;;;;;;5039841;28;20025;-46
2022/11/01 10:20:43;;;;;;;13.52;5.57;;;17.90;99.90;;;;;;5041154;28;20454;-46
2022/11/01 10:23:15;;;;;;;12.73;5.85;;;18.20;99.90;;;;;;5041911;28;20017;-48
2022/11/01 10:25:47;;;;;;;12.35;4.85;;;19.00;99.90;;;;;;5019073;28;20021;-46
2022/11/01 10:28:33;;;;;;;11.00;4.78;;;20.90;99.90;;;;;;5036477;28;20048;-45
2022/11/01 10:31:08;;;;;;;12.90;4.40;;;22.70;99.90;;;;;;5046839;28;20571;-45
2022/11/01 10:33:39;;;;;;;9.75;4.63;;;24.40;96.90;;;;;;5035447;28;20125;-46
2022/11/01 10:36:26;;;;;;;9.82;4.00;;;24.30;96.30;;;;;;5044083;28;20368;-47
2022/11/01 10:39:17;;;;;;;9.68;5.07;;;23.70;95.60;;;;;;5035735;28;20068;-46
2022/11/01 10:41:48;;;;;;;12.82;4.50;;;22.80;96.60;;;;;;4977560;28;20030;-46
2022/11/01 10:44:27;;;;;;;9.27;4.18;;;21.40;98.50;;;;;;5033699;28;20017;-46
2022/11/01 10:46:54;;;;;;;7.57;4.78;;;20.90;99.80;;;;;;5025504;28;20087;-46
2022/11/01 10:49:30;;;;;;;11.25;4.75;;;20.30;99.90;;;;;;5036396;28;20037;-45
2022/11/01 10:52:02;;;;;;;9.48;5.22;;;19.90;99.90;;;;;;5043426;28;20126;-47
2022/11/01 10:54:31;;;;;;;10.98;4.60;;;19.30;99.90;;;;;;5040299;28;20021;-46
2022/11/01 10:57:01;;;;;;;10.43;4.43;;;19.10;99.90;;;;;;5043972;28;20249;-46
2022/11/01 10:59:34;;;;;;;7.50;4.23;;;19.00;99.90;;;;;;5041740;28;20249;-47
2022/11/01 11:02:04;;;;;;;9.48;4.57;;;18.80;99.90;;;;;;5036921;28;20052;-46
2022/11/01 11:04:29;;;;;;;9.43;4.47;;;18.80;99.90;;;;;;5042220;28;20474;-46
2022/11/01 11:06:55;;;;;;;9.18;4.68;;;18.70;99.90;;;;;;5038003;28;20032;-46
2022/11/01 11:09:28;;;;;;;12.23;4.57;;;18.70;99.90;;;;;;5027272;28;20112;-48
2022/11/01 11:12:01;;;;;;;10.60;5.43;;;18.80;99.90;;;;;;5017136;28;20079;-46
2022/11/01 11:14:30;;;;;;;10.32;5.10;;;18.70;99.90;;;;;;5008991;28;20120;-48
2022/11/01 11:16:56;;;;;;;12.70;4.78;;;18.70;99.90;;;;;;5036808;28;20025;-46
2022/11/01 11:19:28;;;;;;;31.13;18.48;;;18.70;99.90;;;;;;5007828;28;20037;-46
2022/11/01 11:21:54;;;;;;;10.48;5.35;;;18.80;99.90;;;;;;5036479;28;20030;-45
2022/11/01 11:24:28;;;;;;;14.55;4.78;;;18.90;99.90;;;;;;5048027;28;20025;-46
2022/11/01 11:26:55;;;;;;;9.75;4.88;;;19.60;99.90;;;;;;5038946;28;20021;-45
2022/11/01 11:29:34;;;;;;;13.23;5.05;;;20.40;99.90;;;;;;5039852;28;20032;-47
2022/11/01 11:32:00;;;;;;;10.55;5.15;;;21.20;99.90;;;;;;5044704;28;20525;-45
2022/11/01 11:34:33;;;;;;;12.13;4.20;;;22.10;99.90;;;;;;5022487;28;20033;-45
2022/11/01 11:37:02;;;;;;;8.65;4.10;;;22.80;98.40;;;;;;5042550;28;20235;-46
2022/11/01 11:39:36;;;;;;;9.35;3.60;;;23.30;98.20;;;;;;5041901;28;20495;-46
2022/11/01 11:42:20;;;;;;;9.70;4.28;;;24.20;96.70;;;;;;5042895;28;20022;-48
2022/11/01 11:44:47;;;;;;;8.55;3.30;;;24.70;94.60;;;;;;5042116;28;20013;-46
2022/11/01 11:47:21;;;;;;;10.70;4.15;;;25.90;92.20;;;;;;5051251;28;20557;-46
2022/11/01 11:49:49;;;;;;;10.43;3.60;;;26.20;91.00;;;;;;5051282;28;20075;-46
2022/11/01 11:52:21;;;;;;;5.25;3.03;;;26.30;86.90;;;;;;5051329;28;20036;-46
2022/11/01 11:54:47;;;;;;;6.32;3.50;;;26.20;85.90;;;;;;5033786;28;20113;-46
2022/11/01 11:57:19;;;;;;;10.77;3.30;;;25.50;84.80;;;;;;5051424;28;20125;-46
2022/11/01 11:59:50;;;;;;;6.53;3.30;;;24.20;87.00;;;;;;5051490;28;20106;-47
2022/11/01 12:02:27;;;;;;;5.28;2.60;;;23.00;89.80;;;;;;5050928;28;20082;-46
2022/11/01 12:05:02;;;;;;;8.75;2.72;;;22.00;91.00;;;;;;5051356;28;20021;-46
2022/11/01 12:07:30;;;;;;;7.97;3.30;;;21.70;92.00;;;;;;5051494;28;20029;-45
2022/11/01 12:10:02;;;;;;;11.23;3.40;;;21.80;91.50;;;;;;5051644;28;20446;-45
2022/11/01 12:12:31;;;;;;;6.22;3.38;;;21.70;91.70;;;;;;5050903;28;20025;-45
2022/11/01 12:14:58;;;;;;;4.95;3.10;;;21.90;91.00;;;;;;5051408;28;20364;-45
2022/11/01 12:17:45;;;;;;;21.25;13.55;;;21.60;91.20;;;;;;5051380;28;20021;-45
2022/11/01 12:20:21;;;;;;;9.05;3.28;;;21.20;91.70;;;;;;5033586;28;20075;-44
2022/11/01 12:22:55;;;;;;;7.78;3.30;;;21.20;92.90;;;;;;5040683;28;20022;-45
2022/11/01 12:25:23;;;;;;;7.13;3.30;;;21.40;91.80;;;;;;5031251;28;20052;-45
2022/11/01 12:28:25;;;;;;;6.43;2.83;;;21.60;91.60;;;;;;5031179;28;20029;-45
2022/11/01 12:30:54;;;;;;;5.18;3.00;;;21.80;91.20;;;;;;5030910;28;20506;-45
2022/11/01 12:33:41;;;;;;;11.73;5.40;;;22.00;91.20;;;;;;5002177;28;20057;-47
2022/11/01 12:36:08;;;;;;;10.80;6.20;;;22.30;92.30;;;;;;4993871;28;20040;-45
2022/11/01 12:38:58;;;;;;;4.75;3.10;;;22.60;92.00;;;;;;5011363;28;20069;-47
2022/11/01 12:41:39;;;;;;;5.30;3.30;;;22.50;92.00;;;;;;5010631;28;20030;-45
2022/11/01 12:44:05;;;;;;;5.07;3.10;;;22.40;92.10;;;;;;5011046;28;20025;-46
2022/11/01 12:46:43;;;;;;;6.65;2.55;;;22.20;91.30;;;;;;5010756;28;20590;-46
2022/11/01 12:49:30;;;;;;;8.90;3.30;;;22.20;91.10;;;;;;5010326;28;20030;-46
2022/11/01 12:52:02;;;;;;;3.78;2.55;;;22.10;91.60;;;;;;5010596;28;20053;-45
2022/11/01 12:54:44;;;;;;;5.28;2.63;;;22.10;92.40;;;;;;4992962;28;20061;-47